sensor_id;sensor_type;location;lat;lon;timestamp;temperature;humidity
69324;DHT22;56470;47.350;8.718;2022-10-23T00:01:21;15.06;73.75
69324;DHT22;56470;47.350;8.718;2022-10-23T00:03:50;15.03;73.80
69324;DHT22;56470;47.350;8.718;2022-10-23T00:06:15;15.05;73.77
69324;DHT22;56470;47.350;8.718;2022-10-23T00:08:41;15.06;73.78
69324;DHT22;56470;47.350;8.718;2022-10-23T00:11:08;15.03;73.73
69324;DHT22;56470;47.350;8.718;2022-10-23T00:13:34;15.03;73.71
69324;DHT22;56470;47.350;8.718;2022-10-23T00:16:00;15.01;73.76
69324;DHT22;56470;47.350;8.718;2022-10-23T00:18:25;14.98;73.82
69324;DHT22;56470;47.350;8.718;2022-10-23T00:20:50;14.92;73.91
69324;DHT22;56470;47.350;8.718;2022-10-23T00:23:16;14.94;73.79
69324;DHT22;56470;47.350;8.718;2022-10-23T00:25:41;14.95;73.76
69324;DHT22;56470;47.350;8.718;2022-10-23T00:28:07;14.87;73.60
69324;DHT22;56470;47.350;8.718;2022-10-23T00:30:32;14.85;73.92
69324;DHT22;56470;47.350;8.718;2022-10-23T00:32:57;14.83;73.78
69324;DHT22;56470;47.350;8.718;2022-10-23T00:35:23;14.84;73.74
69324;DHT22;56470;47.350;8.718;2022-10-23T00:37:48;14.81;73.84
69324;DHT22;56470;47.350;8.718;2022-10-23T00:40:13;14.85;73.82
69324;DHT22;56470;47.350;8.718;2022-10-23T00:42:39;14.85;73.77
69324;DHT22;56470;47.350;8.718;2022-10-23T00:45:17;14.83;74.01
69324;DHT22;56470;47.350;8.718;2022-10-23T00:47:43;14.83;73.90
69324;DHT22;56470;47.350;8.718;2022-10-23T00:50:08;14.83;73.84
69324;DHT22;56470;47.350;8.718;2022-10-23T00:52:36;14.84;73.70
69324;DHT22;56470;47.350;8.718;2022-10-23T00:55:04;14.83;73.68
69324;DHT22;56470;47.350;8.718;2022-10-23T00:57:29;14.80;73.70
69324;DHT22;56470;47.350;8.718;2022-10-23T00:59:55;14.78;73.60
69324;DHT22;56470;47.350;8.718;2022-10-23T01:02:20;14.77;73.69
69324;DHT22;56470;47.350;8.718;2022-10-23T01:04:46;14.75;73.73
69324;DHT22;56470;47.350;8.718;2022-10-23T01:07:21;14.74;73.77
69324;DHT22;56470;47.350;8.718;2022-10-23T01:10:03;14.74;73.83
69324;DHT22;56470;47.350;8.718;2022-10-23T01:12:49;14.67;73.64
69324;DHT22;56470;47.350;8.718;2022-10-23T01:15:21;14.68;73.74
69324;DHT22;56470;47.350;8.718;2022-10-23T01:17:53;14.61;73.84
69324;DHT22;56470;47.350;8.718;2022-10-23T01:28:25;14.64;73.88
69324;DHT22;56470;47.350;8.718;2022-10-23T01:30:53;14.66;73.85
69324;DHT22;56470;47.350;8.718;2022-10-23T01:33:36;14.59;73.75
69324;DHT22;56470;47.350;8.718;2022-10-23T01:36:06;14.61;73.84
69324;DHT22;56470;47.350;8.718;2022-10-23T01:38:43;14.55;73.88
69324;DHT22;56470;47.350;8.718;2022-10-23T01:41:16;14.56;73.83
69324;DHT22;56470;47.350;8.718;2022-10-23T01:43:47;14.50;73.68
69324;DHT22;56470;47.350;8.718;2022-10-23T01:46:15;14.43;73.85
69324;DHT22;56470;47.350;8.718;2022-10-23T01:48:50;14.39;73.96
69324;DHT22;56470;47.350;8.718;2022-10-23T01:51:17;14.37;73.93
69324;DHT22;56470;47.350;8.718;2022-10-23T01:53:45;14.36;73.94
69324;DHT22;56470;47.350;8.718;2022-10-23T01:56:14;14.36;74.08
69324;DHT22;56470;47.350;8.718;2022-10-23T01:58:46;14.34;74.22
69324;DHT22;56470;47.350;8.718;2022-10-23T02:01:13;14.34;74.30
69324;DHT22;56470;47.350;8.718;2022-10-23T02:03:40;14.34;74.34
69324;DHT22;56470;47.350;8.718;2022-10-23T02:06:06;14.39;74.30
69324;DHT22;56470;47.350;8.718;2022-10-23T02:08:32;14.40;74.24
69324;DHT22;56470;47.350;8.718;2022-10-23T02:11:06;14.33;74.35
69324;DHT22;56470;47.350;8.718;2022-10-23T02:13:49;14.34;74.21
69324;DHT22;56470;47.350;8.718;2022-10-23T02:21:26;14.39;74.17
69324;DHT22;56470;47.350;8.718;2022-10-23T02:24:01;14.37;74.18
69324;DHT22;56470;47.350;8.718;2022-10-23T02:26:39;14.34;74.03
69324;DHT22;56470;47.350;8.718;2022-10-23T02:29:24;14.32;74.03
69324;DHT22;56470;47.350;8.718;2022-10-23T02:31:52;14.32;74.25
69324;DHT22;56470;47.350;8.718;2022-10-23T02:34:18;14.29;74.25
69324;DHT22;56470;47.350;8.718;2022-10-23T02:36:43;14.30;74.25
69324;DHT22;56470;47.350;8.718;2022-10-23T02:39:09;14.32;74.29
69324;DHT22;56470;47.350;8.718;2022-10-23T02:44:25;14.33;74.06
69324;DHT22;56470;47.350;8.718;2022-10-23T02:47:03;14.32;74.06
69324;DHT22;56470;47.350;8.718;2022-10-23T02:49:41;14.32;74.08
69324;DHT22;56470;47.350;8.718;2022-10-23T02:52:15;14.30;74.13
69324;DHT22;56470;47.350;8.718;2022-10-23T02:55:04;14.28;74.04
69324;DHT22;56470;47.350;8.718;2022-10-23T03:00:04;14.30;74.09
69324;DHT22;56470;47.350;8.718;2022-10-23T03:02:52;14.23;74.26
69324;DHT22;56470;47.350;8.718;2022-10-23T03:05:21;14.28;74.36
69324;DHT22;56470;47.350;8.718;2022-10-23T03:07:48;14.30;74.36
69324;DHT22;56470;47.350;8.718;2022-10-23T03:10:14;14.33;74.25
69324;DHT22;56470;47.350;8.718;2022-10-23T03:12:39;14.32;74.21
69324;DHT22;56470;47.350;8.718;2022-10-23T03:15:05;14.30;74.22
69324;DHT22;56470;47.350;8.718;2022-10-23T03:17:31;14.32;74.26
69324;DHT22;56470;47.350;8.718;2022-10-23T03:19:56;14.33;74.31
69324;DHT22;56470;47.350;8.718;2022-10-23T03:22:22;14.33;74.08
69324;DHT22;56470;47.350;8.718;2022-10-23T03:24:47;14.23;74.36
69324;DHT22;56470;47.350;8.718;2022-10-23T03:27:13;14.22;74.53
69324;DHT22;56470;47.350;8.718;2022-10-23T03:29:38;14.16;74.60
69324;DHT22;56470;47.350;8.718;2022-10-23T03:32:04;14.08;74.99
69324;DHT22;56470;47.350;8.718;2022-10-23T03:34:29;14.06;75.13
69324;DHT22;56470;47.350;8.718;2022-10-23T03:36:55;14.05;75.07
69324;DHT22;56470;47.350;8.718;2022-10-23T03:39:21;14.04;75.54
69324;DHT22;56470;47.350;8.718;2022-10-23T03:41:46;13.97;75.54
69324;DHT22;56470;47.350;8.718;2022-10-23T03:44:11;14.02;75.64
69324;DHT22;56470;47.350;8.718;2022-10-23T03:46:37;14.00;75.90
69324;DHT22;56470;47.350;8.718;2022-10-23T03:49:02;13.95;75.94
69324;DHT22;56470;47.350;8.718;2022-10-23T03:51:28;13.98;75.84
69324;DHT22;56470;47.350;8.718;2022-10-23T03:53:54;14.05;75.73
69324;DHT22;56470;47.350;8.718;2022-10-23T03:56:19;14.11;75.48
69324;DHT22;56470;47.350;8.718;2022-10-23T03:58:45;14.13;75.28
69324;DHT22;56470;47.350;8.718;2022-10-23T04:01:10;14.13;75.27
69324;DHT22;56470;47.350;8.718;2022-10-23T04:03:36;14.15;75.20
69324;DHT22;56470;47.350;8.718;2022-10-23T04:06:01;14.15;75.09
69324;DHT22;56470;47.350;8.718;2022-10-23T04:08:26;14.11;75.05
69324;DHT22;56470;47.350;8.718;2022-10-23T04:10:53;14.06;75.01
69324;DHT22;56470;47.350;8.718;2022-10-23T04:13:18;14.02;75.24
69324;DHT22;56470;47.350;8.718;2022-10-23T04:15:48;13.95;75.36
69324;DHT22;56470;47.350;8.718;2022-10-23T04:18:13;13.87;75.40
69324;DHT22;56470;47.350;8.718;2022-10-23T04:20:39;13.85;75.41
69324;DHT22;56470;47.350;8.718;2022-10-23T04:23:04;13.88;75.46
69324;DHT22;56470;47.350;8.718;2022-10-23T04:25:29;13.87;75.42
69324;DHT22;56470;47.350;8.718;2022-10-23T04:27:55;13.85;75.63
69324;DHT22;56470;47.350;8.718;2022-10-23T04:30:20;13.88;75.55
69324;DHT22;56470;47.350;8.718;2022-10-23T04:32:49;13.82;75.34
69324;DHT22;56470;47.350;8.718;2022-10-23T04:35:14;13.81;75.72
69324;DHT22;56470;47.350;8.718;2022-10-23T04:37:39;13.79;75.69
69324;DHT22;56470;47.350;8.718;2022-10-23T04:40:05;13.75;75.94
69324;DHT22;56470;47.350;8.718;2022-10-23T04:42:31;13.78;76.02
69324;DHT22;56470;47.350;8.718;2022-10-23T04:44:56;13.81;76.06
69324;DHT22;56470;47.350;8.718;2022-10-23T04:47:21;13.84;75.91
69324;DHT22;56470;47.350;8.718;2022-10-23T04:49:47;13.85;75.79
69324;DHT22;56470;47.350;8.718;2022-10-23T04:52:12;13.89;75.55
69324;DHT22;56470;47.350;8.718;2022-10-23T04:54:38;13.89;75.49
69324;DHT22;56470;47.350;8.718;2022-10-23T04:57:03;13.91;75.37
69324;DHT22;56470;47.350;8.718;2022-10-23T04:59:28;13.88;75.49
69324;DHT22;56470;47.350;8.718;2022-10-23T05:01:54;13.91;75.38
69324;DHT22;56470;47.350;8.718;2022-10-23T05:04:19;13.85;75.26
69324;DHT22;56470;47.350;8.718;2022-10-23T05:06:44;13.82;75.25
69324;DHT22;56470;47.350;8.718;2022-10-23T05:09:10;13.82;75.40
69324;DHT22;56470;47.350;8.718;2022-10-23T05:11:35;13.82;75.36
69324;DHT22;56470;47.350;8.718;2022-10-23T05:14:01;13.81;75.27
69324;DHT22;56470;47.350;8.718;2022-10-23T05:16:53;13.82;75.23
69324;DHT22;56470;47.350;8.718;2022-10-23T05:19:24;13.84;75.07
69324;DHT22;56470;47.350;8.718;2022-10-23T05:21:52;13.82;75.14
69324;DHT22;56470;47.350;8.718;2022-10-23T05:24:21;13.85;75.11
69324;DHT22;56470;47.350;8.718;2022-10-23T05:26:46;13.87;75.10
69324;DHT22;56470;47.350;8.718;2022-10-23T05:29:12;13.81;75.17
69324;DHT22;56470;47.350;8.718;2022-10-23T05:31:38;13.84;75.08
69324;DHT22;56470;47.350;8.718;2022-10-23T05:34:04;13.81;75.10
69324;DHT22;56470;47.350;8.718;2022-10-23T05:36:29;13.77;75.16
69324;DHT22;56470;47.350;8.718;2022-10-23T05:38:55;13.78;75.15
69324;DHT22;56470;47.350;8.718;2022-10-23T05:41:24;13.67;75.36
69324;DHT22;56470;47.350;8.718;2022-10-23T05:43:51;13.67;75.55
69324;DHT22;56470;47.350;8.718;2022-10-23T05:46:18;13.64;75.58
69324;DHT22;56470;47.350;8.718;2022-10-23T05:48:43;13.70;75.40
69324;DHT22;56470;47.350;8.718;2022-10-23T05:51:10;13.71;75.10
69324;DHT22;56470;47.350;8.718;2022-10-23T05:53:35;13.66;75.13
69324;DHT22;56470;47.350;8.718;2022-10-23T05:56:05;13.61;75.39
69324;DHT22;56470;47.350;8.718;2022-10-23T05:58:31;13.66;75.32
69324;DHT22;56470;47.350;8.718;2022-10-23T06:00:57;13.66;75.39
69324;DHT22;56470;47.350;8.718;2022-10-23T06:03:23;13.67;75.43
69324;DHT22;56470;47.350;8.718;2022-10-23T06:05:50;13.66;75.30
69324;DHT22;56470;47.350;8.718;2022-10-23T06:08:16;13.57;75.55
69324;DHT22;56470;47.350;8.718;2022-10-23T06:10:41;13.51;75.82
69324;DHT22;56470;47.350;8.718;2022-10-23T06:13:07;13.44;75.96
69324;DHT22;56470;47.350;8.718;2022-10-23T06:15:32;13.42;76.27
69324;DHT22;56470;47.350;8.718;2022-10-23T06:18:01;13.42;76.50
69324;DHT22;56470;47.350;8.718;2022-10-23T06:20:26;13.46;76.54
69324;DHT22;56470;47.350;8.718;2022-10-23T06:22:52;13.49;76.50
69324;DHT22;56470;47.350;8.718;2022-10-23T06:25:17;13.54;77.17
69324;DHT22;56470;47.350;8.718;2022-10-23T06:27:42;13.67;77.12
69324;DHT22;56470;47.350;8.718;2022-10-23T06:30:08;13.79;76.69
69324;DHT22;56470;47.350;8.718;2022-10-23T06:32:33;13.85;76.46
69324;DHT22;56470;47.350;8.718;2022-10-23T06:34:59;13.95;76.37
69324;DHT22;56470;47.350;8.718;2022-10-23T06:37:24;14.05;76.23
69324;DHT22;56470;47.350;8.718;2022-10-23T06:39:49;14.13;76.05
69324;DHT22;56470;47.350;8.718;2022-10-23T06:42:14;14.19;75.82
69324;DHT22;56470;47.350;8.718;2022-10-23T06:44:40;14.16;75.45
69324;DHT22;56470;47.350;8.718;2022-10-23T06:47:05;14.15;75.58
69324;DHT22;56470;47.350;8.718;2022-10-23T06:49:31;14.21;75.54
69324;DHT22;56470;47.350;8.718;2022-10-23T06:51:56;14.26;75.43
69324;DHT22;56470;47.350;8.718;2022-10-23T06:54:21;14.33;75.03
69324;DHT22;56470;47.350;8.718;2022-10-23T06:56:47;14.37;75.10
69324;DHT22;56470;47.350;8.718;2022-10-23T06:59:12;14.46;74.82
69324;DHT22;56470;47.350;8.718;2022-10-23T07:01:38;14.46;74.44
69324;DHT22;56470;47.350;8.718;2022-10-23T07:04:03;14.36;74.38
69324;DHT22;56470;47.350;8.718;2022-10-23T07:06:29;14.39;74.88
69324;DHT22;56470;47.350;8.718;2022-10-23T07:08:54;14.47;74.93
69324;DHT22;56470;47.350;8.718;2022-10-23T07:11:20;14.61;74.73
69324;DHT22;56470;47.350;8.718;2022-10-23T07:13:45;14.75;74.54
69324;DHT22;56470;47.350;8.718;2022-10-23T07:16:15;14.85;74.16
69324;DHT22;56470;47.350;8.718;2022-10-23T07:18:42;14.99;74.16
69324;DHT22;56470;47.350;8.718;2022-10-23T07:21:07;15.18;74.06
69324;DHT22;56470;47.350;8.718;2022-10-23T07:23:33;15.35;73.86
69324;DHT22;56470;47.350;8.718;2022-10-23T07:26:06;15.54;73.39
69324;DHT22;56470;47.350;8.718;2022-10-23T07:28:32;15.74;73.39
69324;DHT22;56470;47.350;8.718;2022-10-23T07:30:58;16.02;73.16
69324;DHT22;56470;47.350;8.718;2022-10-23T07:33:24;16.25;72.70
69324;DHT22;56470;47.350;8.718;2022-10-23T07:35:49;16.57;72.36
69324;DHT22;56470;47.350;8.718;2022-10-23T07:38:14;16.89;71.74
69324;DHT22;56470;47.350;8.718;2022-10-23T07:40:40;17.08;70.82
69324;DHT22;56470;47.350;8.718;2022-10-23T07:43:05;17.14;70.48
69324;DHT22;56470;47.350;8.718;2022-10-23T07:45:30;17.19;70.35
69324;DHT22;56470;47.350;8.718;2022-10-23T07:47:55;17.16;70.10
69324;DHT22;56470;47.350;8.718;2022-10-23T07:50:21;17.22;70.28
69324;DHT22;56470;47.350;8.718;2022-10-23T07:52:46;17.32;70.06
69324;DHT22;56470;47.350;8.718;2022-10-23T07:55:12;17.36;70.09
69324;DHT22;56470;47.350;8.718;2022-10-23T07:57:38;17.51;70.03
69324;DHT22;56470;47.350;8.718;2022-10-23T08:00:04;17.67;69.93
69324;DHT22;56470;47.350;8.718;2022-10-23T08:02:30;17.82;69.63
69324;DHT22;56470;47.350;8.718;2022-10-23T08:04:55;18.01;69.25
69324;DHT22;56470;47.350;8.718;2022-10-23T08:07:20;18.13;68.85
69324;DHT22;56470;47.350;8.718;2022-10-23T08:09:46;18.30;68.36
69324;DHT22;56470;47.350;8.718;2022-10-23T08:12:11;18.39;67.85
69324;DHT22;56470;47.350;8.718;2022-10-23T08:14:37;18.46;67.89
69324;DHT22;56470;47.350;8.718;2022-10-23T08:17:02;18.57;67.58
69324;DHT22;56470;47.350;8.718;2022-10-23T08:19:28;18.61;67.27
69324;DHT22;56470;47.350;8.718;2022-10-23T08:21:54;18.60;67.16
69324;DHT22;56470;47.350;8.718;2022-10-23T08:24:21;18.57;67.07
69324;DHT22;56470;47.350;8.718;2022-10-23T08:26:48;18.56;67.04
69324;DHT22;56470;47.350;8.718;2022-10-23T08:29:15;18.50;67.08
69324;DHT22;56470;47.350;8.718;2022-10-23T08:31:40;18.40;67.14
69324;DHT22;56470;47.350;8.718;2022-10-23T08:34:05;18.33;67.31
69324;DHT22;56470;47.350;8.718;2022-10-23T08:36:31;18.33;67.37
69324;DHT22;56470;47.350;8.718;2022-10-23T08:38:57;18.39;67.60
69324;DHT22;56470;47.350;8.718;2022-10-23T08:41:28;18.47;67.48
69324;DHT22;56470;47.350;8.718;2022-10-23T08:44:23;18.54;66.62
69324;DHT22;56470;47.350;8.718;2022-10-23T08:47:11;18.51;66.21
69324;DHT22;56470;47.350;8.718;2022-10-23T08:49:46;18.34;67.07
69324;DHT22;56470;47.350;8.718;2022-10-23T08:55:17;18.06;67.55
69324;DHT22;56470;47.350;8.718;2022-10-23T08:58:09;18.04;67.93
69324;DHT22;56470;47.350;8.718;2022-10-23T09:00:40;18.08;68.00
69324;DHT22;56470;47.350;8.718;2022-10-23T09:03:08;17.98;68.00
69324;DHT22;56470;47.350;8.718;2022-10-23T09:10:45;17.96;68.01
69324;DHT22;56470;47.350;8.718;2022-10-23T09:13:20;17.75;68.41
69324;DHT22;56470;47.350;8.718;2022-10-23T09:16:00;17.66;68.82
69324;DHT22;56470;47.350;8.718;2022-10-23T09:18:29;17.61;69.18
69324;DHT22;56470;47.350;8.718;2022-10-23T09:20:55;17.68;69.21
69324;DHT22;56470;47.350;8.718;2022-10-23T09:23:22;17.70;69.08
69324;DHT22;56470;47.350;8.718;2022-10-23T09:25:49;17.60;69.23
69324;DHT22;56470;47.350;8.718;2022-10-23T09:28:35;17.47;69.65
69324;DHT22;56470;47.350;8.718;2022-10-23T09:31:10;17.32;69.81
69324;DHT22;56470;47.350;8.718;2022-10-23T09:33:36;17.18;70.14
69324;DHT22;56470;47.350;8.718;2022-10-23T09:36:05;17.22;70.43
69324;DHT22;56470;47.350;8.718;2022-10-23T09:38:36;17.25;70.52
69324;DHT22;56470;47.350;8.718;2022-10-23T09:41:12;17.30;70.52
69324;DHT22;56470;47.350;8.718;2022-10-23T09:43:37;17.37;70.49
69324;DHT22;56470;47.350;8.718;2022-10-23T09:46:05;17.42;70.46
69324;DHT22;56470;47.350;8.718;2022-10-23T09:48:32;17.43;70.54
69324;DHT22;56470;47.350;8.718;2022-10-23T09:50:59;17.50;70.57
69324;DHT22;56470;47.350;8.718;2022-10-23T09:55:55;17.40;70.58
69324;DHT22;56470;47.350;8.718;2022-10-23T09:58:34;17.39;71.01
69324;DHT22;56470;47.350;8.718;2022-10-23T10:01:00;17.47;70.90
69324;DHT22;56470;47.350;8.718;2022-10-23T10:03:26;17.54;70.92
69324;DHT22;56470;47.350;8.718;2022-10-23T10:05:54;17.64;70.78
69324;DHT22;56470;47.350;8.718;2022-10-23T10:08:42;17.75;70.68
69324;DHT22;56470;47.350;8.718;2022-10-23T10:11:24;17.82;70.33
69324;DHT22;56470;47.350;8.718;2022-10-23T10:14:03;17.92;70.10
69324;DHT22;56470;47.350;8.718;2022-10-23T10:16:41;17.99;70.11
69324;DHT22;56470;47.350;8.718;2022-10-23T10:22:11;17.98;69.95
69324;DHT22;56470;47.350;8.718;2022-10-23T10:24:49;17.98;70.06
69324;DHT22;56470;47.350;8.718;2022-10-23T10:32:44;18.17;70.14
69324;DHT22;56470;47.350;8.718;2022-10-23T10:38:59;18.39;69.15
69324;DHT22;56470;47.350;8.718;2022-10-23T10:41:34;18.43;68.91
69324;DHT22;56470;47.350;8.718;2022-10-23T10:44:08;18.50;69.13
69324;DHT22;56470;47.350;8.718;2022-10-23T10:46:55;18.49;69.19
69324;DHT22;56470;47.350;8.718;2022-10-23T10:52:53;18.50;68.96
69324;DHT22;56470;47.350;8.718;2022-10-23T10:55:41;18.50;69.16
69324;DHT22;56470;47.350;8.718;2022-10-23T11:00:51;18.51;69.21
69324;DHT22;56470;47.350;8.718;2022-10-23T11:03:40;18.49;68.71
69324;DHT22;56470;47.350;8.718;2022-10-23T11:06:19;18.47;68.82
69324;DHT22;56470;47.350;8.718;2022-10-23T11:08:45;18.43;69.24
69324;DHT22;56470;47.350;8.718;2022-10-23T11:11:18;18.43;69.42
69324;DHT22;56470;47.350;8.718;2022-10-23T11:13:44;18.43;69.57
69324;DHT22;56470;47.350;8.718;2022-10-23T11:18:41;18.44;69.62
69324;DHT22;56470;47.350;8.718;2022-10-23T11:21:28;18.43;69.54
69324;DHT22;56470;47.350;8.718;2022-10-23T11:29:41;18.41;69.23
69324;DHT22;56470;47.350;8.718;2022-10-23T11:40:47;18.44;69.58
69324;DHT22;56470;47.350;8.718;2022-10-23T11:43:24;18.40;69.73
69324;DHT22;56470;47.350;8.718;2022-10-23T11:45:49;18.39;69.92
69324;DHT22;56470;47.350;8.718;2022-10-23T11:48:37;18.34;70.52
69324;DHT22;56470;47.350;8.718;2022-10-23T11:51:03;18.34;70.38
69324;DHT22;56470;47.350;8.718;2022-10-23T11:56:04;18.39;70.87
69324;DHT22;56470;47.350;8.718;2022-10-23T12:01:30;18.44;71.10
69324;DHT22;56470;47.350;8.718;2022-10-23T12:06:44;18.46;70.86
69324;DHT22;56470;47.350;8.718;2022-10-23T12:17:01;18.46;70.99
69324;DHT22;56470;47.350;8.718;2022-10-23T12:19:29;18.41;70.98
69324;DHT22;56470;47.350;8.718;2022-10-23T12:22:08;18.41;71.11
69324;DHT22;56470;47.350;8.718;2022-10-23T12:32:36;18.43;71.21
69324;DHT22;56470;47.350;8.718;2022-10-23T12:35:22;18.46;71.15
69324;DHT22;56470;47.350;8.718;2022-10-23T12:38:08;18.44;71.15
69324;DHT22;56470;47.350;8.718;2022-10-23T12:40:37;18.44;71.15
69324;DHT22;56470;47.350;8.718;2022-10-23T12:43:02;18.44;71.16
69324;DHT22;56470;47.350;8.718;2022-10-23T12:45:42;18.43;71.15
69324;DHT22;56470;47.350;8.718;2022-10-23T12:48:18;18.40;71.26
69324;DHT22;56470;47.350;8.718;2022-10-23T12:50:48;18.40;71.24
69324;DHT22;56470;47.350;8.718;2022-10-23T12:53:17;18.32;71.34
69324;DHT22;56470;47.350;8.718;2022-10-23T12:55:57;18.29;71.40
69324;DHT22;56470;47.350;8.718;2022-10-23T12:58:34;18.23;71.31
69324;DHT22;56470;47.350;8.718;2022-10-23T13:01:03;18.22;71.37
69324;DHT22;56470;47.350;8.718;2022-10-23T13:03:30;18.22;71.41
69324;DHT22;56470;47.350;8.718;2022-10-23T13:05:57;18.25;71.30
69324;DHT22;56470;47.350;8.718;2022-10-23T13:08:28;18.22;71.24
69324;DHT22;56470;47.350;8.718;2022-10-23T13:10:56;18.30;71.19
69324;DHT22;56470;47.350;8.718;2022-10-23T13:13:22;18.34;71.02
69324;DHT22;56470;47.350;8.718;2022-10-23T13:15:48;18.37;71.00
69324;DHT22;56470;47.350;8.718;2022-10-23T13:18:14;18.37;70.97
69324;DHT22;56470;47.350;8.718;2022-10-23T13:23:32;18.47;70.73
69324;DHT22;56470;47.350;8.718;2022-10-23T13:26:05;18.49;70.79
69324;DHT22;56470;47.350;8.718;2022-10-23T13:28:41;18.50;70.46
69324;DHT22;56470;47.350;8.718;2022-10-23T13:33:45;18.56;70.18
69324;DHT22;56470;47.350;8.718;2022-10-23T13:38:58;18.61;70.31
69324;DHT22;56470;47.350;8.718;2022-10-23T13:41:26;18.64;70.27
69324;DHT22;56470;47.350;8.718;2022-10-23T13:43:51;18.68;70.15
69324;DHT22;56470;47.350;8.718;2022-10-23T13:46:19;18.71;70.09
69324;DHT22;56470;47.350;8.718;2022-10-23T13:48:45;18.74;69.99
69324;DHT22;56470;47.350;8.718;2022-10-23T13:51:12;18.75;69.94
69324;DHT22;56470;47.350;8.718;2022-10-23T13:53:38;18.75;69.92
69324;DHT22;56470;47.350;8.718;2022-10-23T13:56:03;18.81;69.91
69324;DHT22;56470;47.350;8.718;2022-10-23T13:58:29;18.83;69.96
69324;DHT22;56470;47.350;8.718;2022-10-23T14:00:54;18.84;70.00
69324;DHT22;56470;47.350;8.718;2022-10-23T14:03:19;18.84;70.05
69324;DHT22;56470;47.350;8.718;2022-10-23T14:05:51;18.85;70.14
69324;DHT22;56470;47.350;8.718;2022-10-23T14:08:16;18.83;70.11
69324;DHT22;56470;47.350;8.718;2022-10-23T14:10:42;18.83;70.09
69324;DHT22;56470;47.350;8.718;2022-10-23T14:13:07;18.83;70.13
69324;DHT22;56470;47.350;8.718;2022-10-23T14:15:32;18.85;70.12
69324;DHT22;56470;47.350;8.718;2022-10-23T14:17:58;18.85;70.14
69324;DHT22;56470;47.350;8.718;2022-10-23T14:20:23;18.84;70.29
69324;DHT22;56470;47.350;8.718;2022-10-23T14:22:48;18.85;70.38
69324;DHT22;56470;47.350;8.718;2022-10-23T14:25:14;18.84;70.44
69324;DHT22;56470;47.350;8.718;2022-10-23T14:27:39;18.83;70.51
69324;DHT22;56470;47.350;8.718;2022-10-23T14:30:05;18.81;70.61
69324;DHT22;56470;47.350;8.718;2022-10-23T14:32:30;18.81;70.71
69324;DHT22;56470;47.350;8.718;2022-10-23T14:34:56;18.81;70.72
69324;DHT22;56470;47.350;8.718;2022-10-23T14:37:21;18.78;70.77
69324;DHT22;56470;47.350;8.718;2022-10-23T14:39:47;18.79;70.90
69324;DHT22;56470;47.350;8.718;2022-10-23T14:42:14;18.83;70.83
69324;DHT22;56470;47.350;8.718;2022-10-23T14:44:40;18.83;70.87
69324;DHT22;56470;47.350;8.718;2022-10-23T14:47:07;18.84;70.89
69324;DHT22;56470;47.350;8.718;2022-10-23T14:49:32;18.87;70.85
69324;DHT22;56470;47.350;8.718;2022-10-23T14:51:59;18.85;70.83
69324;DHT22;56470;47.350;8.718;2022-10-23T14:54:25;18.84;70.94
69324;DHT22;56470;47.350;8.718;2022-10-23T14:56:52;18.78;71.07
69324;DHT22;56470;47.350;8.718;2022-10-23T14:59:17;18.74;71.24
69324;DHT22;56470;47.350;8.718;2022-10-23T15:01:43;18.72;71.39
69324;DHT22;56470;47.350;8.718;2022-10-23T15:04:12;18.63;71.61
69324;DHT22;56470;47.350;8.718;2022-10-23T15:06:38;18.57;71.71
69324;DHT22;56470;47.350;8.718;2022-10-23T15:09:04;18.58;71.84
69324;DHT22;56470;47.350;8.718;2022-10-23T15:11:29;18.61;71.84
69324;DHT22;56470;47.350;8.718;2022-10-23T15:13:55;18.61;71.68
69324;DHT22;56470;47.350;8.718;2022-10-23T15:16:22;18.65;71.63
69324;DHT22;56470;47.350;8.718;2022-10-23T15:18:48;18.63;71.60
69324;DHT22;56470;47.350;8.718;2022-10-23T15:21:14;18.60;71.53
69324;DHT22;56470;47.350;8.718;2022-10-23T15:23:41;18.58;71.57
69324;DHT22;56470;47.350;8.718;2022-10-23T15:26:10;18.56;71.62
69324;DHT22;56470;47.350;8.718;2022-10-23T15:28:36;18.54;71.74
69324;DHT22;56470;47.350;8.718;2022-10-23T15:31:02;18.56;71.76
69324;DHT22;56470;47.350;8.718;2022-10-23T15:33:27;18.54;71.83
69324;DHT22;56470;47.350;8.718;2022-10-23T15:35:53;18.47;71.84
69324;DHT22;56470;47.350;8.718;2022-10-23T15:38:19;18.26;72.25
69324;DHT22;56470;47.350;8.718;2022-10-23T15:40:46;18.09;72.93
69324;DHT22;56470;47.350;8.718;2022-10-23T15:43:12;17.94;73.39
69324;DHT22;56470;47.350;8.718;2022-10-23T15:45:39;17.82;73.51
69324;DHT22;56470;47.350;8.718;2022-10-23T15:48:04;17.74;73.85
69324;DHT22;56470;47.350;8.718;2022-10-23T15:50:31;17.61;74.44
69324;DHT22;56470;47.350;8.718;2022-10-23T15:52:56;17.60;74.70
69324;DHT22;56470;47.350;8.718;2022-10-23T15:55:22;17.59;74.87
69324;DHT22;56470;47.350;8.718;2022-10-23T15:57:47;17.59;74.86
69324;DHT22;56470;47.350;8.718;2022-10-23T16:00:13;17.55;75.08
69324;DHT22;56470;47.350;8.718;2022-10-23T16:02:38;17.54;75.06
69324;DHT22;56470;47.350;8.718;2022-10-23T16:19:11;17.25;76.63
69324;DHT22;56470;47.350;8.718;2022-10-23T16:21:55;17.26;77.98
69324;DHT22;56470;47.350;8.718;2022-10-23T16:38:47;17.11;77.24
69324;DHT22;56470;47.350;8.718;2022-10-23T16:41:13;17.16;77.33
69324;DHT22;56470;47.350;8.718;2022-10-23T16:43:38;17.16;77.10
69324;DHT22;56470;47.350;8.718;2022-10-23T16:48:31;17.20;77.35
69324;DHT22;56470;47.350;8.718;2022-10-23T16:50:56;17.22;77.31
69324;DHT22;56470;47.350;8.718;2022-10-23T16:53:22;17.22;77.40
69324;DHT22;56470;47.350;8.718;2022-10-23T16:55:48;17.22;77.41
69324;DHT22;56470;47.350;8.718;2022-10-23T16:58:14;17.18;77.48
69324;DHT22;56470;47.350;8.718;2022-10-23T17:00:39;17.16;77.48
69324;DHT22;56470;47.350;8.718;2022-10-23T17:03:04;17.19;77.49
69324;DHT22;56470;47.350;8.718;2022-10-23T17:05:33;17.20;77.48
69324;DHT22;56470;47.350;8.718;2022-10-23T17:07:59;17.22;77.48
69324;DHT22;56470;47.350;8.718;2022-10-23T17:10:25;17.23;77.54
69324;DHT22;56470;47.350;8.718;2022-10-23T17:12:50;17.25;77.56
69324;DHT22;56470;47.350;8.718;2022-10-23T17:15:16;17.25;77.51
69324;DHT22;56470;47.350;8.718;2022-10-23T17:17:42;17.26;77.55
69324;DHT22;56470;47.350;8.718;2022-10-23T17:20:08;17.27;77.49
69324;DHT22;56470;47.350;8.718;2022-10-23T17:22:33;17.29;77.46
69324;DHT22;56470;47.350;8.718;2022-10-23T17:25:00;17.33;77.54
69324;DHT22;56470;47.350;8.718;2022-10-23T17:27:25;17.39;77.56
69324;DHT22;56470;47.350;8.718;2022-10-23T17:29:50;17.40;77.46
69324;DHT22;56470;47.350;8.718;2022-10-23T17:32:16;17.39;77.46
69324;DHT22;56470;47.350;8.718;2022-10-23T17:34:41;17.42;77.45
69324;DHT22;56470;47.350;8.718;2022-10-23T17:37:06;17.47;77.74
69324;DHT22;56470;47.350;8.718;2022-10-23T17:39:33;17.57;77.29
69324;DHT22;56470;47.350;8.718;2022-10-23T17:41:58;17.63;77.13
69324;DHT22;56470;47.350;8.718;2022-10-23T17:44:23;17.64;77.29